createdAt,value
2023-02-09T00:00:29.065Z,16.42
2023-02-09T00:02:58.175Z,14.63
2023-02-09T00:05:25.957Z,16.92
2023-02-09T00:07:54.044Z,18.05
2023-02-09T00:10:21.887Z,18.30
2023-02-09T00:13:06.925Z,17.23
2023-02-09T00:15:34.737Z,18.73
2023-02-09T00:18:03.947Z,19.17
2023-02-09T00:20:31.763Z,18.55
2023-02-09T00:22:59.507Z,16.77
2023-02-09T00:25:27.304Z,17.55
2023-02-09T00:27:55.179Z,22.08
2023-02-09T00:30:22.898Z,20.02
2023-02-09T00:32:50.583Z,21.85
2023-02-09T00:35:20.453Z,20.83
2023-02-09T00:37:48.281Z,20.98
2023-02-09T00:40:16.039Z,19.95
2023-02-09T00:42:44.005Z,20.98
2023-02-09T00:45:11.738Z,20.67
2023-02-09T00:47:39.477Z,22.05
2023-02-09T00:50:08.529Z,19.75
2023-02-09T00:52:37.786Z,22.00
2023-02-09T00:55:06.187Z,21.77
2023-02-09T00:57:33.891Z,20.45
2023-02-09T01:00:01.648Z,20.40
2023-02-09T01:02:29.636Z,21.48
2023-02-09T01:04:57.434Z,24.05
2023-02-09T01:07:25.260Z,21.10
2023-02-09T01:09:54.370Z,18.13
2023-02-09T01:12:22.171Z,19.45
2023-02-09T01:14:49.936Z,20.75
2023-02-09T01:17:17.699Z,19.75
2023-02-09T01:19:45.448Z,20.92
2023-02-09T01:22:16.243Z,19.42
2023-02-09T01:24:44.023Z,20.65
2023-02-09T01:27:13.142Z,18.08
2023-02-09T01:29:40.957Z,19.23
2023-02-09T01:32:09.191Z,18.15
2023-02-09T01:34:37.207Z,18.77
2023-02-09T01:37:05.034Z,21.80
2023-02-09T01:39:33.295Z,20.80
2023-02-09T01:42:01.111Z,19.80
2023-02-09T01:45:06.323Z,19.30
2023-02-09T01:47:39.161Z,18.13
2023-02-09T01:50:07.469Z,16.17
2023-02-09T01:52:35.532Z,20.98
2023-02-09T01:55:07.535Z,19.27
2023-02-09T01:57:39.292Z,17.58
2023-02-09T02:00:11.371Z,19.42
2023-02-09T02:02:40.301Z,16.98
2023-02-09T02:05:09.554Z,19.10
2023-02-09T02:07:41.924Z,16.20
2023-02-09T02:10:10.106Z,18.63
2023-02-09T02:12:39.364Z,16.80
2023-02-09T02:15:09.512Z,17.13
2023-02-09T02:17:55.357Z,18.80
2023-02-09T02:20:50.846Z,18.10
2023-02-09T02:23:27.537Z,18.25
2023-02-09T02:26:29.792Z,16.63
2023-02-09T02:29:46.039Z,16.00
2023-02-09T02:32:31.696Z,15.95
2023-02-09T02:35:05.683Z,17.27
2023-02-09T02:37:49.720Z,15.70
2023-02-09T02:40:28.387Z,17.40
2023-02-09T02:43:02.423Z,17.42
2023-02-09T02:45:39.617Z,15.20
2023-02-09T02:48:19.753Z,15.65
2023-02-09T02:50:54.073Z,16.63
2023-02-09T02:53:26.438Z,16.02
2023-02-09T02:55:55.874Z,15.35
2023-02-09T02:58:26.836Z,18.02
2023-02-09T03:00:58.996Z,19.08
2023-02-09T03:03:33.203Z,14.50
2023-02-09T03:06:04.208Z,16.67
2023-02-09T03:08:32.075Z,17.67
2023-02-09T03:11:00.095Z,15.35
2023-02-09T03:13:40.888Z,15.50
2023-02-09T03:16:21.578Z,16.83
2023-02-09T03:19:04.836Z,16.05
2023-02-09T03:21:43.258Z,15.02
2023-02-09T03:24:20.663Z,14.93
2023-02-09T03:26:53.884Z,14.48
2023-02-09T03:29:24.616Z,18.23
2023-02-09T03:31:53.236Z,14.75
2023-02-09T03:34:22.559Z,15.63
2023-02-09T03:36:53.316Z,17.35
2023-02-09T03:39:21.101Z,15.38
2023-02-09T03:41:48.936Z,16.58
2023-02-09T03:44:28.917Z,15.25
2023-02-09T03:47:01.405Z,14.18
2023-02-09T03:49:32.833Z,18.73
2023-02-09T03:52:01.654Z,13.73
2023-02-09T03:54:30.048Z,15.90
2023-02-09T03:56:58.187Z,16.10
2023-02-09T03:59:26.905Z,16.83
2023-02-09T04:01:55.346Z,15.00
2023-02-09T04:04:24.176Z,16.23
2023-02-09T04:06:54.094Z,15.35
2023-02-09T04:09:21.878Z,14.88
2023-02-09T04:11:49.848Z,16.52
2023-02-09T04:14:18.146Z,14.68
2023-02-09T04:16:46.064Z,17.23
2023-02-09T04:19:13.864Z,16.35
2023-02-09T04:21:41.745Z,15.18
2023-02-09T04:24:11.443Z,15.77
2023-02-09T04:26:39.290Z,15.10
2023-02-09T04:29:07.132Z,14.55
2023-02-09T04:31:35.998Z,15.55
2023-02-09T04:34:03.911Z,15.15
2023-02-09T04:36:31.881Z,14.85
2023-02-09T04:38:59.609Z,13.82
2023-02-09T04:41:28.768Z,14.18
2023-02-09T04:43:56.495Z,16.67
2023-02-09T04:46:24.391Z,15.80
2023-02-09T04:48:52.281Z,14.88
2023-02-09T04:51:20.008Z,15.35
2023-02-09T04:53:47.806Z,14.93
2023-02-09T04:56:16.690Z,14.30
2023-02-09T04:59:03.285Z,13.95
2023-02-09T05:01:31.718Z,14.75
2023-02-09T05:03:59.457Z,14.93
2023-02-09T05:06:27.452Z,12.68
2023-02-09T05:08:55.164Z,14.63
2023-02-09T05:11:25.289Z,13.60
2023-02-09T05:13:54.706Z,15.48
2023-02-09T05:16:22.523Z,14.95
2023-02-09T05:18:51.088Z,15.57
2023-02-09T05:21:18.950Z,13.98
2023-02-09T05:23:46.795Z,17.42
2023-02-09T05:26:14.587Z,15.60
2023-02-09T05:28:42.324Z,14.98
2023-02-09T05:31:11.549Z,13.40
2023-02-09T05:33:39.363Z,14.50
2023-02-09T05:36:09.438Z,15.88
2023-02-09T05:38:37.697Z,16.98
2023-02-09T05:41:06.508Z,18.77
2023-02-09T05:43:34.315Z,18.63
2023-02-09T05:46:02.106Z,17.25
2023-02-09T05:48:31.377Z,14.88
2023-02-09T05:50:59.196Z,16.58
2023-02-09T05:53:26.942Z,14.95
2023-02-09T05:55:54.757Z,14.00
2023-02-09T05:58:22.505Z,15.05
2023-02-09T06:00:50.222Z,17.05
2023-02-09T06:03:18.080Z,16.83
2023-02-09T06:05:47.872Z,14.27
2023-02-09T06:08:15.833Z,14.90
2023-02-09T06:10:43.861Z,14.75
2023-02-09T06:13:11.869Z,14.82
2023-02-09T06:15:39.738Z,14.23
2023-02-09T06:18:07.509Z,15.20
2023-02-09T06:20:35.260Z,16.48
2023-02-09T06:23:04.483Z,15.65
2023-02-09T06:25:32.200Z,14.98
2023-02-09T06:27:59.971Z,12.70
2023-02-09T06:30:27.783Z,16.65
2023-02-09T06:32:55.572Z,16.55
2023-02-09T06:35:23.438Z,18.13
2023-02-09T06:37:51.145Z,17.02
2023-02-09T06:40:20.784Z,16.70
2023-02-09T06:42:48.640Z,14.32
2023-02-09T06:45:18.031Z,15.93
2023-02-09T06:47:46.961Z,15.18
2023-02-09T06:50:18.893Z,16.45
2023-02-09T06:52:47.269Z,14.40
2023-02-09T06:55:15.469Z,15.98
2023-02-09T06:57:44.558Z,16.08
2023-02-09T07:00:14.041Z,16.67
2023-02-09T07:02:43.786Z,19.60
2023-02-09T07:05:11.760Z,14.02
2023-02-09T07:07:40.138Z,18.00
2023-02-09T07:10:10.067Z,17.10
2023-02-09T07:12:40.503Z,18.27
2023-02-09T07:15:10.760Z,14.02
2023-02-09T07:17:38.635Z,19.52
2023-02-09T07:20:07.608Z,15.35
2023-02-09T07:22:35.396Z,17.02
2023-02-09T07:25:03.288Z,18.35
2023-02-09T07:27:33.309Z,16.75
2023-02-09T07:30:01.435Z,16.10
2023-02-09T07:32:30.902Z,17.08
2023-02-09T07:34:59.411Z,16.02
2023-02-09T07:37:27.143Z,14.95
2023-02-09T07:39:55.120Z,14.10
2023-02-09T07:42:23.464Z,13.70
2023-02-09T07:44:51.299Z,15.18
2023-02-09T07:47:19.073Z,15.00
2023-02-09T07:49:48.155Z,14.50
2023-02-09T07:52:15.923Z,14.77
2023-02-09T07:54:43.764Z,16.65
2023-02-09T07:57:13.600Z,16.60
2023-02-09T07:59:41.449Z,15.77
2023-02-09T08:02:19.026Z,16.70
2023-02-09T08:04:48.213Z,15.55
2023-02-09T08:07:16.061Z,17.90
2023-02-09T08:09:45.105Z,18.52
2023-02-09T08:12:13.149Z,18.33
2023-02-09T08:14:48.039Z,18.10
2023-02-09T08:17:24.241Z,19.95
2023-02-09T08:19:55.706Z,17.48
2023-02-09T08:22:26.014Z,17.17
2023-02-09T08:24:54.546Z,18.38
2023-02-09T08:27:23.244Z,15.68
2023-02-09T08:29:51.046Z,16.58
2023-02-09T08:32:18.902Z,17.45
2023-02-09T08:34:46.700Z,16.90
2023-02-09T08:37:16.041Z,15.32
2023-02-09T08:39:45.124Z,13.02
2023-02-09T08:42:12.998Z,15.23
2023-02-09T08:44:40.785Z,14.15
2023-02-09T08:47:08.633Z,14.40
2023-02-09T08:49:37.158Z,13.95
2023-02-09T08:52:05.287Z,12.25
2023-02-09T08:54:34.353Z,15.65
2023-02-09T08:57:02.660Z,15.40
2023-02-09T08:59:30.568Z,13.48
2023-02-09T09:01:58.286Z,16.25
2023-02-09T09:04:26.091Z,13.52
2023-02-09T09:06:54.857Z,15.60
2023-02-09T09:09:22.578Z,14.32
2023-02-09T09:11:51.817Z,16.63
2023-02-09T09:14:19.508Z,16.58
2023-02-09T09:16:47.376Z,15.65
2023-02-09T09:19:15.265Z,14.10
2023-02-09T09:21:43.064Z,18.45
2023-02-09T09:24:10.818Z,15.45
2023-02-09T09:26:38.584Z,16.45
2023-02-09T09:29:07.759Z,16.65
2023-02-09T09:31:37.160Z,17.60
2023-02-09T09:34:05.056Z,17.65
2023-02-09T09:36:32.811Z,16.35
2023-02-09T09:39:00.611Z,15.10
2023-02-09T09:41:32.780Z,17.30
2023-02-09T09:44:02.112Z,13.55
2023-02-09T09:46:37.867Z,20.30
2023-02-09T09:49:06.602Z,17.05
2023-02-09T09:51:40.564Z,17.27
2023-02-09T09:54:15.202Z,17.17
2023-02-09T09:56:43.079Z,17.17
2023-02-09T09:59:17.674Z,18.13
2023-02-09T10:01:48.306Z,17.58
2023-02-09T10:04:17.254Z,14.02
2023-02-09T10:06:47.358Z,13.73
2023-02-09T10:09:26.089Z,16.05
2023-02-09T10:12:02.040Z,14.50
2023-02-09T10:14:29.872Z,15.27
2023-02-09T10:16:59.093Z,13.73
2023-02-09T10:19:29.305Z,15.85
2023-02-09T10:21:57.713Z,14.10
2023-02-09T10:24:27.333Z,13.93
2023-02-09T10:27:08.689Z,13.65
2023-02-09T10:29:36.960Z,12.82
2023-02-09T10:32:14.571Z,13.70
2023-02-09T10:34:46.139Z,13.73
2023-02-09T10:37:27.369Z,12.77
2023-02-09T10:40:01.734Z,13.07
2023-02-09T10:42:31.527Z,13.05
2023-02-09T10:45:07.821Z,11.52
2023-02-09T10:47:37.036Z,14.65
2023-02-09T10:50:17.130Z,12.90
2023-02-09T10:52:56.735Z,12.77
2023-02-09T10:55:29.506Z,13.95
2023-02-09T10:58:25.905Z,13.63
2023-02-09T11:01:01.925Z,14.82
2023-02-09T11:03:31.153Z,13.65
2023-02-09T11:06:02.363Z,14.77
2023-02-09T11:08:41.360Z,15.15
2023-02-09T11:11:25.925Z,11.65
2023-02-09T11:13:54.087Z,12.55
2023-02-09T11:16:46.855Z,13.93
2023-02-09T11:19:31.320Z,12.57
2023-02-09T11:22:11.835Z,12.45
2023-02-09T11:24:53.104Z,15.05
2023-02-09T11:27:37.486Z,13.63
2023-02-09T11:30:17.455Z,13.15
2023-02-09T11:32:51.179Z,14.18
2023-02-09T11:35:23.415Z,12.25
2023-02-09T11:37:57.680Z,14.32
2023-02-09T11:40:29.583Z,12.45
2023-02-09T11:43:06.929Z,12.95
2023-02-09T11:45:40.219Z,11.43
2023-02-09T11:48:12.358Z,12.30
2023-02-09T11:50:52.703Z,14.95
2023-02-09T11:53:29.070Z,13.00
2023-02-09T11:55:59.637Z,13.15
2023-02-09T11:58:53.275Z,13.40
2023-02-09T12:01:30.866Z,12.45
2023-02-09T12:04:06.228Z,13.32
2023-02-09T12:06:40.903Z,11.43
2023-02-09T12:09:21.174Z,11.32
2023-02-09T12:11:58.720Z,11.52
2023-02-09T12:14:57.255Z,11.02
2023-02-09T12:17:31.544Z,9.15
2023-02-09T12:20:01.383Z,12.15
2023-02-09T12:22:49.184Z,11.20
2023-02-09T12:25:46.171Z,10.95
2023-02-09T12:28:38.652Z,10.68
2023-02-09T12:31:16.305Z,10.43
2023-02-09T12:34:10.429Z,11.10
2023-02-09T12:39:24.273Z,8.35
2023-02-09T12:42:26.631Z,9.00
2023-02-09T12:45:00.574Z,7.65
2023-02-09T12:47:46.216Z,8.23
2023-02-09T12:50:24.552Z,7.78
2023-02-09T12:53:29.825Z,6.93
2023-02-09T12:56:05.248Z,7.07
2023-02-09T12:58:39.178Z,7.45
2023-02-09T13:01:07.858Z,9.73
2023-02-09T13:03:45.169Z,8.25
2023-02-09T13:06:27.567Z,8.45
2023-02-09T13:08:58.393Z,7.15
2023-02-09T13:11:33.333Z,8.65
2023-02-09T13:14:05.943Z,7.88
2023-02-09T13:16:50.851Z,6.25
2023-02-09T13:19:45.989Z,5.53
2023-02-09T13:22:27.905Z,7.13
2023-02-09T13:25:00.385Z,8.15
2023-02-09T13:27:30.575Z,6.87
2023-02-09T13:30:00.151Z,7.38
2023-02-09T13:32:36.845Z,6.72
2023-02-09T13:35:15.791Z,5.72
2023-02-09T13:37:47.662Z,4.80
2023-02-09T13:40:18.957Z,7.90
2023-02-09T13:42:57.976Z,6.20
2023-02-09T13:45:28.037Z,9.13
2023-02-09T13:47:57.161Z,7.05
2023-02-09T13:50:28.206Z,6.93
2023-02-09T13:53:08.063Z,5.57
2023-02-09T13:55:39.691Z,8.95
2023-02-09T13:58:15.323Z,7.82
2023-02-09T14:00:46.595Z,6.75
2023-02-09T14:03:19.318Z,7.85
2023-02-09T14:05:52.835Z,6.97
2023-02-09T14:08:22.273Z,8.10
2023-02-09T14:10:56.554Z,6.88
2023-02-09T14:13:30.950Z,7.20
2023-02-09T14:16:07.860Z,6.95
2023-02-09T14:18:50.732Z,7.68
2023-02-09T14:21:25.066Z,5.55
2023-02-09T14:24:21.502Z,6.35
2023-02-09T14:26:52.537Z,7.65
2023-02-09T14:29:25.201Z,6.68
2023-02-09T14:31:54.422Z,6.70
2023-02-09T14:34:37.594Z,6.05
2023-02-09T14:37:29.278Z,6.85
2023-02-09T14:40:01.006Z,6.18
2023-02-09T14:42:30.659Z,6.55
2023-02-09T14:45:02.744Z,5.78
2023-02-09T14:47:38.434Z,6.95
2023-02-09T14:50:07.835Z,6.35
2023-02-09T14:52:38.869Z,7.75
2023-02-09T14:55:12.538Z,8.30
2023-02-09T14:57:40.231Z,5.22
2023-02-09T15:00:21.939Z,6.47
2023-02-09T15:02:50.694Z,6.38
2023-02-09T15:05:19.188Z,5.47
2023-02-09T15:07:49.328Z,6.80
2023-02-09T15:10:27.788Z,6.13
2023-02-09T15:12:56.057Z,5.22
2023-02-09T15:15:26.259Z,6.07
2023-02-09T15:17:55.278Z,5.88
2023-02-09T15:20:25.403Z,6.40
2023-02-09T15:22:53.690Z,4.97
2023-02-09T15:25:22.641Z,6.30
2023-02-09T15:27:52.512Z,5.65
2023-02-09T15:30:22.528Z,5.53
2023-02-09T15:32:51.851Z,5.63
2023-02-09T15:35:21.724Z,5.15
2023-02-09T15:37:53.271Z,4.82
2023-02-09T15:40:45.013Z,5.25
2023-02-09T15:43:29.259Z,7.90
2023-02-09T15:46:14.931Z,10.07
2023-02-09T15:48:44.488Z,6.53
2023-02-09T15:51:12.407Z,6.03
2023-02-09T15:53:40.474Z,7.07
2023-02-09T15:56:09.204Z,5.65
2023-02-09T15:58:40.319Z,5.65
2023-02-09T16:01:08.036Z,5.82
2023-02-09T16:03:36.095Z,6.40
2023-02-09T16:06:12.809Z,4.35
2023-02-09T16:08:40.635Z,6.18
2023-02-09T16:11:17.729Z,6.60
2023-02-09T16:13:45.489Z,5.57
2023-02-09T16:16:17.271Z,6.30
2023-02-09T16:18:45.909Z,5.35
2023-02-09T16:21:21.028Z,4.18
2023-02-09T16:23:49.078Z,4.65
2023-02-09T16:26:16.921Z,5.47
2023-02-09T16:28:44.627Z,5.43
2023-02-09T16:31:12.393Z,5.90
2023-02-09T16:33:41.644Z,4.80
2023-02-09T16:36:17.016Z,5.85
2023-02-09T16:38:44.830Z,5.25
2023-02-09T16:41:39.711Z,5.00
2023-02-09T16:44:16.909Z,7.78
2023-02-09T16:46:46.950Z,5.53
2023-02-09T16:49:30.789Z,5.57
2023-02-09T16:54:32.020Z,5.68
2023-02-09T16:57:00.856Z,5.40
2023-02-09T16:59:28.912Z,7.75
2023-02-09T17:01:59.796Z,6.88
2023-02-09T17:04:27.775Z,5.85
2023-02-09T17:06:55.875Z,7.45
2023-02-09T17:09:24.957Z,7.07
2023-02-09T17:11:52.704Z,6.32
2023-02-09T17:14:20.463Z,6.68
2023-02-09T17:16:49.662Z,7.30
2023-02-09T17:19:19.094Z,6.85
2023-02-09T17:21:46.931Z,8.82
2023-02-09T17:24:17.460Z,9.00
2023-02-09T17:26:46.700Z,8.27
2023-02-09T17:29:14.501Z,8.70
2023-02-09T17:31:52.951Z,6.95
2023-02-09T17:34:26.896Z,5.90
2023-02-09T17:36:54.766Z,6.82
2023-02-09T17:39:22.465Z,6.90
2023-02-09T17:41:51.710Z,6.70
2023-02-09T17:44:32.105Z,7.00
2023-02-09T17:47:07.358Z,6.25
2023-02-09T17:49:35.229Z,6.78
2023-02-09T17:52:03.021Z,6.78
2023-02-09T17:54:32.498Z,7.35
2023-02-09T17:57:01.641Z,6.40
2023-02-09T17:59:29.557Z,7.15
2023-02-09T18:01:58.799Z,7.82
2023-02-09T18:04:27.259Z,7.50
2023-02-09T18:06:57.670Z,8.15
2023-02-09T18:09:25.639Z,7.55
2023-02-09T18:11:59.748Z,9.05
2023-02-09T18:14:30.421Z,9.88
2023-02-09T18:16:58.480Z,9.55
2023-02-09T18:19:26.883Z,11.80
2023-02-09T18:21:58.679Z,11.27
2023-02-09T18:24:28.373Z,12.55
2023-02-09T18:26:56.884Z,12.50
2023-02-09T18:29:29.089Z,13.90
2023-02-09T18:31:59.953Z,14.43
2023-02-09T18:34:28.118Z,14.07
2023-02-09T18:36:56.004Z,12.80
2023-02-09T18:39:23.732Z,14.55
2023-02-09T18:41:54.214Z,14.88
2023-02-09T18:44:24.544Z,13.18
2023-02-09T18:46:52.380Z,14.52
2023-02-09T18:49:21.636Z,11.75
2023-02-09T18:51:49.734Z,12.25
2023-02-09T18:54:17.429Z,11.32
2023-02-09T18:56:45.244Z,10.43
2023-02-09T18:59:13.066Z,9.63
2023-02-09T19:01:41.123Z,9.52
2023-02-09T19:04:09.024Z,8.77
2023-02-09T19:06:38.694Z,9.43
2023-02-09T19:09:06.460Z,8.25
2023-02-09T19:11:34.398Z,7.75
2023-02-09T19:14:20.003Z,8.27
2023-02-09T19:16:47.853Z,7.38
2023-02-09T19:19:16.095Z,9.13
2023-02-09T19:21:45.185Z,8.30
2023-02-09T19:24:13.336Z,12.90
2023-02-09T19:26:41.083Z,9.73
2023-02-09T19:29:08.855Z,10.05
2023-02-09T19:31:36.637Z,10.63
2023-02-09T19:34:04.474Z,9.55
2023-02-09T19:36:32.289Z,10.18
2023-02-09T19:39:02.151Z,10.63
2023-02-09T19:41:30.152Z,8.52
2023-02-09T19:43:58.844Z,9.07
2023-02-09T19:46:27.052Z,9.68
2023-02-09T19:48:54.840Z,10.50
2023-02-09T19:51:23.187Z,10.25
2023-02-09T19:53:51.307Z,8.05
2023-02-09T19:56:23.292Z,11.48
2023-02-09T19:58:51.781Z,11.82
2023-02-09T20:01:20.042Z,11.48
2023-02-09T20:03:49.421Z,10.95
2023-02-09T20:06:17.807Z,12.52
2023-02-09T20:08:45.625Z,11.40
2023-02-09T20:11:16.656Z,11.63
2023-02-09T20:13:46.240Z,11.43
2023-02-09T20:16:19.580Z,12.07
2023-02-09T20:18:48.701Z,12.30
2023-02-09T20:21:17.997Z,16.23
2023-02-09T20:23:46.804Z,15.65
2023-02-09T20:26:16.446Z,21.42
2023-02-09T20:28:45.648Z,19.70
2023-02-09T20:31:15.658Z,17.10
2023-02-09T20:33:43.713Z,20.20
2023-02-09T20:36:11.607Z,15.50
2023-02-09T20:38:39.458Z,16.58
2023-02-09T20:41:09.402Z,13.00
2023-02-09T20:43:55.211Z,14.80
2023-02-09T20:46:55.497Z,13.80
2023-02-09T20:49:25.765Z,14.35
2023-02-09T20:51:53.636Z,14.52
2023-02-09T20:54:21.467Z,13.65
2023-02-09T20:56:49.261Z,13.15
2023-02-09T20:59:17.533Z,14.00
2023-02-09T21:01:47.926Z,15.68
2023-02-09T21:04:15.694Z,14.82
2023-02-09T21:06:43.768Z,14.40
2023-02-09T21:09:14.289Z,14.55
2023-02-09T21:11:42.845Z,13.23
2023-02-09T21:14:21.738Z,13.00
2023-02-09T21:16:57.308Z,13.00
2023-02-09T21:19:25.945Z,13.82
2023-02-09T21:21:53.846Z,15.98
2023-02-09T21:24:21.707Z,13.75
2023-02-09T21:26:49.623Z,13.20
2023-02-09T21:29:17.376Z,13.07
2023-02-09T21:31:45.823Z,12.80
2023-02-09T21:34:16.089Z,12.98
2023-02-09T21:36:45.576Z,13.23
2023-02-09T21:39:13.893Z,12.77
2023-02-09T21:41:59.461Z,11.82
2023-02-09T21:44:27.340Z,12.48
2023-02-09T21:46:55.114Z,13.02
2023-02-09T21:49:24.682Z,11.30
2023-02-09T21:51:52.527Z,12.50
2023-02-09T21:54:20.244Z,11.18
2023-02-09T21:56:48.073Z,10.60
2023-02-09T21:59:15.832Z,11.63
2023-02-09T22:01:43.748Z,11.15
2023-02-09T22:04:11.896Z,11.30
2023-02-09T22:06:41.687Z,11.73
2023-02-09T22:09:09.638Z,11.63
2023-02-09T22:11:37.430Z,14.05
2023-02-09T22:14:05.404Z,12.20
2023-02-09T22:16:33.382Z,13.23
2023-02-09T22:19:01.290Z,12.95
2023-02-09T22:21:29.079Z,13.18
2023-02-09T22:23:58.266Z,12.30
2023-02-09T22:26:26.024Z,11.48
2023-02-09T22:28:53.747Z,11.75
2023-02-09T22:31:22.621Z,12.30
2023-02-09T22:33:54.256Z,11.60
2023-02-09T22:36:23.304Z,13.05
2023-02-09T22:38:51.540Z,13.13
2023-02-09T22:41:23.248Z,13.30
2023-02-09T22:43:52.271Z,13.10
2023-02-09T22:46:20.963Z,11.85
2023-02-09T22:48:52.342Z,11.63
2023-02-09T22:51:20.833Z,13.63
2023-02-09T22:53:49.248Z,12.73
2023-02-09T22:56:17.592Z,12.00
2023-02-09T22:58:46.730Z,12.32
2023-02-09T23:01:14.756Z,11.20
2023-02-09T23:03:42.857Z,10.48
2023-02-09T23:06:13.814Z,12.35
2023-02-09T23:08:41.597Z,10.27
2023-02-09T23:11:11.570Z,12.05
2023-02-09T23:13:40.130Z,11.48
2023-02-09T23:16:15.192Z,12.32
2023-02-09T23:18:48.208Z,12.20
2023-02-09T23:21:17.783Z,10.48
2023-02-09T23:23:45.774Z,11.18
2023-02-09T23:26:14.596Z,11.68
2023-02-09T23:28:42.557Z,11.85
2023-02-09T23:31:14.860Z,11.23
2023-02-09T23:33:43.004Z,11.27
2023-02-09T23:36:12.865Z,10.07
2023-02-09T23:38:40.930Z,10.48
2023-02-09T23:41:09.718Z,9.57
2023-02-09T23:43:37.958Z,10.50
2023-02-09T23:46:08.901Z,10.05
2023-02-09T23:48:38.092Z,10.52
2023-02-09T23:51:07.822Z,9.27
2023-02-09T23:53:36.559Z,10.30
2023-02-09T23:56:04.892Z,9.23
2023-02-09T23:58:32.928Z,9.98
